createdAt,value
2019-06-26T00:04:35.494Z,62.66
2019-06-26T00:09:38.222Z,62.95
2019-06-26T00:14:40.912Z,63.09
2019-06-26T00:19:43.608Z,62.50
2019-06-26T00:24:46.326Z,62.34
2019-06-26T00:29:49.290Z,62.72
2019-06-26T00:34:52.074Z,62.61
2019-06-26T00:39:54.756Z,63.24
2019-06-26T00:44:57.466Z,63.29
2019-06-26T00:50:00.841Z,63.46
2019-06-26T00:55:05.343Z,63.51
2019-06-26T01:00:09.214Z,63.16
2019-06-26T01:05:13.137Z,62.72
2019-06-26T01:10:17.861Z,62.01
2019-06-26T01:15:20.671Z,61.66
2019-06-26T01:20:23.393Z,61.79
2019-06-26T01:25:26.084Z,62.18
2019-06-26T01:30:28.781Z,62.43
2019-06-26T01:35:31.495Z,61.98
2019-06-26T01:40:34.192Z,61.91
2019-06-26T01:45:36.907Z,61.45
2019-06-26T01:50:39.650Z,61.35
2019-06-26T01:55:42.422Z,61.38
2019-06-26T02:00:45.124Z,61.37
2019-06-26T02:05:47.839Z,61.44
2019-06-26T02:10:50.530Z,61.63
2019-06-26T02:15:53.244Z,61.76
2019-06-26T02:20:55.970Z,61.89
2019-06-26T02:25:58.671Z,61.96
2019-06-26T02:31:01.372Z,61.99
2019-06-26T02:36:04.096Z,62.20
2019-06-26T02:41:06.946Z,62.53
2019-06-26T02:46:09.677Z,62.72
2019-06-26T02:51:12.459Z,62.95
2019-06-26T02:56:15.149Z,63.06
2019-06-26T03:01:17.900Z,63.11
2019-06-26T03:06:20.627Z,63.11
2019-06-26T03:11:23.356Z,63.38
2019-06-26T03:16:26.099Z,63.53
2019-06-26T03:21:28.816Z,63.50
2019-06-26T03:26:31.594Z,63.34
2019-06-26T03:31:34.406Z,63.32
2019-06-26T03:36:37.175Z,63.26
2019-06-26T03:41:39.901Z,63.12
2019-06-26T03:46:42.620Z,62.82
2019-06-26T03:51:45.333Z,62.42
2019-06-26T03:56:48.066Z,62.16
2019-06-26T04:01:50.787Z,61.98
2019-06-26T04:06:54.403Z,61.93
2019-06-26T04:11:57.211Z,62.05
2019-06-26T04:16:59.946Z,62.17
2019-06-26T04:22:02.709Z,62.14
2019-06-26T04:27:05.519Z,62.04
2019-06-26T04:32:08.227Z,61.68
2019-06-26T04:37:11.058Z,61.85
2019-06-26T04:42:13.760Z,61.67
2019-06-26T04:47:16.473Z,61.43
2019-06-26T04:52:19.173Z,61.30
2019-06-26T04:57:21.867Z,61.28
2019-06-26T05:02:24.838Z,61.03
2019-06-26T05:07:27.544Z,61.44
2019-06-26T05:12:30.263Z,61.87
2019-06-26T05:17:33.008Z,61.74
2019-06-26T05:22:35.716Z,61.71
2019-06-26T05:27:38.427Z,61.75
2019-06-26T05:32:41.120Z,61.27
2019-06-26T05:37:43.830Z,60.44
2019-06-26T05:42:46.527Z,60.46
2019-06-26T05:47:49.223Z,59.89
2019-06-26T05:52:51.919Z,59.85
2019-06-26T05:57:54.893Z,59.44
2019-06-26T06:02:58.252Z,58.32
2019-06-26T06:08:01.323Z,58.37
2019-06-26T06:13:04.035Z,58.16
2019-06-26T06:18:06.750Z,57.98
2019-06-26T06:23:09.450Z,57.34
2019-06-26T06:28:12.138Z,57.37
2019-06-26T06:33:14.833Z,56.67
2019-06-26T06:38:17.533Z,56.07
2019-06-26T06:43:20.231Z,55.71
2019-06-26T06:48:22.954Z,55.54
2019-06-26T06:53:25.668Z,55.30
2019-06-26T06:58:30.226Z,55.85
2019-06-26T07:03:33.006Z,55.90
2019-06-26T07:08:35.723Z,55.57
2019-06-26T07:13:38.456Z,55.17
2019-06-26T07:18:41.255Z,55.08
2019-06-26T07:23:44.090Z,55.32
2019-06-26T07:28:46.878Z,55.12
2019-06-26T07:33:49.684Z,55.11
2019-06-26T07:38:52.419Z,55.13
2019-06-26T07:43:55.123Z,55.54
2019-06-26T07:48:57.836Z,55.38
2019-06-26T07:54:00.547Z,55.07
2019-06-26T07:59:03.330Z,54.58
2019-06-26T08:04:06.156Z,53.82
2019-06-26T08:09:08.867Z,53.63
2019-06-26T08:14:11.565Z,53.39
2019-06-26T08:19:14.267Z,52.55
2019-06-26T08:24:16.983Z,52.42
2019-06-26T08:29:19.680Z,52.33
2019-06-26T08:34:22.423Z,51.96
2019-06-26T08:39:25.192Z,52.30
2019-06-26T08:44:47.467Z,51.69
2019-06-26T08:49:50.174Z,51.18
2019-06-26T08:54:52.865Z,50.87
2019-06-26T08:59:55.559Z,50.62
2019-06-26T09:04:58.249Z,50.86
2019-06-26T09:10:00.964Z,50.34
2019-06-26T09:15:04.318Z,49.08
2019-06-26T09:20:08.339Z,49.55
2019-06-26T09:25:21.624Z,49.01
2019-06-26T09:30:16.057Z,48.96
2019-06-26T09:35:18.760Z,48.45
2019-06-26T09:40:21.551Z,48.56
2019-06-26T09:45:24.364Z,48.53
2019-06-26T09:50:27.054Z,46.75
2019-06-26T09:55:29.754Z,47.44
2019-06-26T10:00:32.752Z,47.37
2019-06-26T10:05:35.435Z,47.19
2019-06-26T10:10:38.139Z,47.49
2019-06-26T10:15:41.007Z,47.05
2019-06-26T10:20:43.717Z,47.41
2019-06-26T10:25:46.435Z,46.93
2019-06-26T10:30:49.179Z,47.39
2019-06-26T10:35:51.904Z,47.43
2019-06-26T10:40:54.632Z,46.83
2019-06-26T10:45:57.353Z,46.88
2019-06-26T10:51:00.054Z,46.51
2019-06-26T10:56:02.841Z,45.35
2019-06-26T11:01:06.039Z,45.23
2019-06-26T11:06:08.799Z,44.96
2019-06-26T11:11:11.509Z,44.68
2019-06-26T11:16:14.243Z,44.74
2019-06-26T11:21:16.936Z,44.86
2019-06-26T11:26:19.668Z,44.65
2019-06-26T11:31:22.372Z,44.29
2019-06-26T11:36:25.077Z,43.68
2019-06-26T11:41:27.807Z,43.99
2019-06-26T11:46:30.500Z,45.35
2019-06-26T11:51:33.219Z,45.30
2019-06-26T11:56:35.933Z,46.06
2019-06-26T12:01:38.631Z,45.04
2019-06-26T12:06:41.347Z,45.23
2019-06-26T12:11:44.173Z,44.78
2019-06-26T12:16:46.955Z,44.37
2019-06-26T12:21:49.668Z,44.20
2019-06-26T12:26:52.396Z,43.86
2019-06-26T12:31:55.329Z,44.50
2019-06-26T12:36:58.148Z,43.97
2019-06-26T12:42:00.941Z,44.32
2019-06-26T12:47:03.678Z,43.44
2019-06-26T12:52:06.484Z,43.90
2019-06-26T12:57:09.205Z,43.66
2019-06-26T13:02:11.907Z,43.16
2019-06-26T13:07:14.608Z,43.38
2019-06-26T13:12:17.316Z,43.78
2019-06-26T13:17:20.045Z,43.96
2019-06-26T13:22:22.823Z,43.92
2019-06-26T13:27:25.631Z,44.70
2019-06-26T13:32:28.347Z,44.49
2019-06-26T13:37:31.151Z,44.33
2019-06-26T13:42:33.872Z,44.21
2019-06-26T13:47:36.599Z,44.48
2019-06-26T13:52:39.329Z,44.42
2019-06-26T13:57:42.059Z,44.79
2019-06-26T14:02:44.788Z,43.27
2019-06-26T14:07:47.531Z,42.79
2019-06-26T14:12:50.214Z,42.18
2019-06-26T14:17:52.941Z,42.03
2019-06-26T14:22:55.638Z,42.36
2019-06-26T14:27:58.344Z,42.36
2019-06-26T14:33:01.075Z,43.37
2019-06-26T14:38:03.785Z,42.27
2019-06-26T14:43:06.490Z,42.84
2019-06-26T14:48:09.272Z,42.25
2019-06-26T14:53:12.020Z,42.44
2019-06-26T14:58:14.742Z,42.80
2019-06-26T15:03:17.458Z,41.85
2019-06-26T15:08:20.179Z,42.59
2019-06-26T15:13:22.902Z,42.17
2019-06-26T15:18:25.842Z,41.95
2019-06-26T15:23:28.610Z,43.75
2019-06-26T15:28:31.332Z,45.68
2019-06-26T15:33:36.587Z,46.79
2019-06-26T15:38:38.752Z,48.00
2019-06-26T15:43:41.499Z,47.72
2019-06-26T15:48:44.244Z,47.68
2019-06-26T15:53:47.065Z,47.33
2019-06-26T15:58:49.785Z,48.09
2019-06-26T16:03:52.537Z,48.22
2019-06-26T16:08:55.264Z,47.40
2019-06-26T16:13:58.677Z,46.89
2019-06-26T16:19:06.381Z,46.64
2019-06-26T16:24:09.286Z,47.80
2019-06-26T16:29:12.035Z,48.26
2019-06-26T16:34:14.892Z,47.65
2019-06-26T16:39:17.598Z,47.88
2019-06-26T16:44:21.024Z,46.77
2019-06-26T16:49:23.843Z,46.50
2019-06-26T16:54:26.697Z,46.31
2019-06-26T16:59:29.412Z,45.84
2019-06-26T17:04:32.141Z,45.60
2019-06-26T17:09:35.197Z,45.41
2019-06-26T17:14:37.987Z,46.38
2019-06-26T17:19:40.717Z,46.71
2019-06-26T17:24:43.438Z,46.85
2019-06-26T17:29:46.149Z,47.02
2019-06-26T17:34:48.882Z,47.60
2019-06-26T17:39:51.617Z,47.91
2019-06-26T17:44:54.999Z,48.38
2019-06-26T17:49:57.763Z,49.10
2019-06-26T17:55:00.493Z,49.36
2019-06-26T18:00:05.554Z,50.25
2019-06-26T18:05:08.567Z,50.99
2019-06-26T18:10:11.278Z,51.84
2019-06-26T18:15:14.086Z,52.47
2019-06-26T18:20:17.616Z,53.05
2019-06-26T18:25:20.524Z,54.10
2019-06-26T18:30:23.276Z,55.18
2019-06-26T18:35:26.006Z,55.45
2019-06-26T18:40:28.702Z,56.17
2019-06-26T18:45:35.948Z,57.02
2019-06-26T18:50:38.730Z,57.20
2019-06-26T18:55:43.584Z,57.58
2019-06-26T19:00:46.324Z,57.23
2019-06-26T19:05:49.083Z,58.04
2019-06-26T19:10:51.772Z,58.36
2019-06-26T19:15:54.760Z,58.15
2019-06-26T19:20:57.651Z,58.60
2019-06-26T19:26:01.054Z,58.77
2019-06-26T19:31:04.066Z,59.17
2019-06-26T19:36:07.040Z,60.03
2019-06-26T19:41:09.828Z,60.50
2019-06-26T19:46:12.580Z,60.82
2019-06-26T19:51:15.317Z,60.49
2019-06-26T19:56:20.228Z,60.83
2019-06-26T20:01:22.720Z,61.61
2019-06-26T20:06:25.475Z,61.24
2019-06-26T20:11:28.203Z,61.14
2019-06-26T20:16:30.955Z,61.06
2019-06-26T20:21:34.233Z,61.84
2019-06-26T20:26:36.957Z,62.25
2019-06-26T20:31:39.683Z,63.54
2019-06-26T20:36:42.784Z,64.26
2019-06-26T20:41:45.565Z,64.22
2019-06-26T20:46:48.346Z,65.08
2019-06-26T20:51:51.036Z,64.92
2019-06-26T20:56:53.736Z,65.01
2019-06-26T21:01:56.496Z,65.47
2019-06-26T21:06:59.291Z,66.02
2019-06-26T21:12:02.007Z,66.31
2019-06-26T21:17:04.775Z,66.32
2019-06-26T21:22:08.989Z,66.54
2019-06-26T21:27:12.122Z,66.40
2019-06-26T21:32:14.853Z,66.63
2019-06-26T21:37:17.593Z,66.84
2019-06-26T21:42:20.568Z,67.11
2019-06-26T21:47:23.281Z,66.77
2019-06-26T21:52:25.996Z,66.89
2019-06-26T21:57:29.002Z,66.94
2019-06-26T22:02:32.074Z,67.01
2019-06-26T22:07:35.371Z,67.66
2019-06-26T22:12:38.431Z,67.32
2019-06-26T22:17:41.230Z,67.15
2019-06-26T22:22:43.929Z,67.16
2019-06-26T22:27:46.917Z,67.29
2019-06-26T22:32:49.623Z,67.21
2019-06-26T22:37:52.350Z,66.63
2019-06-26T22:42:55.069Z,66.32
2019-06-26T22:47:57.790Z,66.06
2019-06-26T22:53:00.511Z,66.65
2019-06-26T22:58:03.232Z,66.22
2019-06-26T23:03:06.227Z,66.07
2019-06-26T23:08:08.936Z,66.56
2019-06-26T23:13:11.666Z,66.57
2019-06-26T23:18:15.315Z,66.50
2019-06-26T23:23:18.051Z,66.35
2019-06-26T23:28:20.818Z,66.65
2019-06-26T23:33:23.522Z,67.22
2019-06-26T23:38:26.222Z,67.29
2019-06-26T23:43:28.944Z,67.15
2019-06-26T23:48:31.660Z,66.88
2019-06-26T23:53:34.382Z,67.29
2019-06-26T23:58:37.132Z,67.15
